Fairfield, TX

6:46 AM CDT on July 07, 2015 (GMT -0500)
Sam's Restaurant | | Change Station
CLOSE
Current Station
Personal Weather Station
Location: Fairfield, TX
Elevation: 474 ft
Nearby Weather Stations
Active Advisory: Flood Warning

Elev 474 ft 31.73 °N, 96.15 °W | Updated 19 seconds ago

Mostly Cloudy
Mostly Cloudy
78.0 °F
Feels Like 81 °F
N
0.0
Wind Variable Wind from South
Gusts 2.0 mph

Today
High -- | Low -- °F
--% Chance of Precip.
Yesterday
High -- | Low -- °F
Precip. -- in
6:25 AM 8:33 PM
Waning Gibbous, 65% visible
Pressure 29.99 in
Visibility 10.0 miles
Clouds Mostly Cloudy 1300 ft
Overcast 1800 ft
Heat Index 81 °F
Dew Point 75 °F
Humidity 91%
Rainfall 0.00 in
Snow Depth Not available.
UV 0 out of 12
Pollen 4.40 out of 12
Air Quality Not available.
Flu Activity Not available.
METAR KLXY 071140Z AUTO 13015KT 10SM BKN013 OVC018 25/24 A2999 RMK AO2 T02470239

More Conditions Fewer Conditions

Pressure 29.99 in
Visibility 10.0 miles
Clouds Mostly Cloudy 1300 ft
Overcast 1800 ft
Heat Index 81 °F
Dew Point 75 °F
Humidity 91%
Rainfall 0.00 in
Snow Depth Not available.
UV 0 out of 12
Pollen 4.40 out of 12
Air Quality Not available.
Flu Activity Not available.
METAR KLXY 071140Z AUTO 13015KT 10SM BKN013 OVC018 25/24 A2999 RMK AO2 T02470239

More Conditions Fewer Conditions

10-Day Weather Forecast

×

Almanac

Astronomy

Jul. 07, 2015 Rise Set
Actual Time
Civil Twilight
Nautical Twilight
Astronomical Twilight
Moon
Length of Visible Light
Length of Day
Tomorrow will be .
, % of the Moon is Illuminated

Today's Extremes

State Highs State Lows

Community

WunderPhotos

Upload Photos

1,835,770 photos uploaded!

WunderBlogs® & News

Nearby

Air Quality

  Air Quality AQ Index Pollutant
Not available.

Snow Depth

Station Depth Elevation

Earthquake Activity

City Distance Mag. Time & Date
Minimum magnitude displayed is 2.5.

Coastal Water Temperatures

Place Temperature

Stations

Nearby Weather Stations

Station Location Temp. Windchill Dew Point Humidity Wind Precip. Elev Updated Type
                   
Flood Warning
Statement as of 8:43 PM CDT on July 06, 2015

The Flood Warning continues for
the Trinity River near Long Lake.
* At 0830 PM Monday the stage was 37.10 feet.
* Flood stage is 35 feet.
* Minor flooding is occurring and minor flooding is forecast.
* Forecast... the river has crested and will continue to recede and
fall below flood stage by late Thursday afternoon.


Lat... Lon 3170 9593 3150 9580 3149 9562 3173 9580